Time;durP1;ratioP1;P1;durP2;ratioP2;P2;SDS_P1;SDS_P2;PMS_P1;PMS_P2;Temp;Humidity;BMP_temperature;BMP_pressure;BME280_temperature;BME280_humidity;BME280_pressure;Samples;Min_cycle;Max_cycle;Signal;HPM_P1;HPM_P2
2022/11/08 00:19:38;;;;;;;10.43;1.58;;;;;;;12.58;93.25;100450.88;20704535;28;20148;-66
2022/11/08 00:29:59;;;;;;;10.65;1.83;;;;;;;12.64;92.88;100443.38;20697179;28;20045;-66
2022/11/08 00:40:21;;;;;;;6.15;1.40;;;;;;;12.66;92.86;100440.63;20721455;28;20425;-66
2022/11/08 00:50:42;;;;;;;8.90;1.98;;;;;;;12.62;93.30;100424.34;20708542;28;20038;-65
2022/11/08 01:01:09;;;;;;;9.95;1.63;;;;;;;12.60;93.02;100426.25;20702715;28;20100;-66
2022/11/08 01:11:31;;;;;;;12.90;1.98;;;;;;;12.55;93.16;100417.94;20697242;28;20043;-66
2022/11/08 01:21:52;;;;;;;;;;;;;;;12.54;92.85;100424.09;20713386;28;20050;-66
2022/11/08 01:32:14;;;;;;;9.50;1.73;;;;;;;12.56;92.57;100424.00;20701769;28;20016;-67
2022/11/08 01:42:35;;;;;;;10.90;1.90;;;;;;;12.46;93.00;100427.47;20701215;28;20046;-65
2022/11/08 01:52:57;;;;;;;;;;;;;;;12.35;93.54;100419.63;20695808;28;20046;-66
2022/11/08 02:03:19;;;;;;;9.90;1.70;;;;;;;12.33;93.00;100421.53;20695994;28;19945;-65
2022/11/08 02:13:41;;;;;;;9.55;2.33;;;;;;;12.22;93.06;100404.06;20690780;28;20497;-65
2022/11/08 02:24:06;;;;;;;;;;;;;;;12.03;93.48;100408.22;20668022;28;20073;-65
2022/11/08 02:34:48;;;;;;;8.65;2.22;;;;;;;11.88;93.68;100404.19;20694915;28;19975;-65
2022/11/08 02:45:09;;;;;;;8.63;1.60;;;;;;;11.76;94.01;100405.94;20702464;28;20446;-65
2022/11/08 02:55:32;;;;;;;;;;;;;;;11.62;94.76;100403.53;20695582;28;20074;-66
2022/11/08 03:05:55;;;;;;;9.57;2.08;;;;;;;11.51;94.73;100389.59;20705160;28;19925;-65
2022/11/08 03:16:17;;;;;;;6.55;1.80;;;;;;;11.38;95.25;100382.81;20687280;28;20042;-66
2022/11/08 03:26:38;;;;;;;5.87;2.13;;;;;;;11.27;95.47;100381.00;20691710;28;20131;-66
2022/11/08 03:36:59;;;;;;;10.33;1.90;;;;;;;11.19;95.80;100367.72;20684870;28;20658;-65
2022/11/08 03:47:21;;;;;;;7.45;1.67;;;;;;;11.12;96.39;100370.88;20689714;28;20123;-65
2022/11/08 03:57:45;;;;;;;8.98;2.00;;;;;;;11.10;95.96;100384.03;20699114;28;20038;-66
2022/11/08 04:08:07;;;;;;;9.30;2.03;;;;;;;11.08;95.99;100375.47;20684742;28;20100;-66
2022/11/08 04:29:08;;;;;;;7.10;1.75;;;;;;;11.07;95.62;100358.16;20693015;28;20100;-67
2022/11/08 04:39:30;;;;;;;;;;;;;;;11.08;96.56;100357.22;20686756;28;20069;-66
2022/11/08 04:49:53;;;;;;;10.00;2.07;;;;;;;10.99;96.48;100339.66;20686400;28;19992;-65
2022/11/08 05:00:15;;;;;;;12.63;2.33;;;;;;;10.94;96.60;100331.31;20679271;28;20046;-65
2022/11/08 05:10:36;;;;;;;6.57;1.90;;;;;;;10.90;96.51;100323.84;20687112;28;20492;-66
2022/11/08 05:31:40;;;;;;;6.65;1.80;;;;;;;10.84;96.30;100299.06;20711224;28;20133;-66
2022/11/08 05:42:03;;;;;;;9.30;2.05;;;;;;;10.82;96.52;100285.31;20698839;28;20078;-66
2022/11/08 05:52:25;;;;;;;6.90;2.00;;;;;;;10.74;97.10;100286.81;20723498;22;20117;-73
2022/11/08 06:02:46;;;;;;;8.83;1.90;;;;;;;10.62;97.00;100278.09;20649568;28;20058;-73
2022/11/08 06:13:08;;;;;;;8.90;1.70;;;;;;;10.56;97.30;100285.53;20607547;28;20425;-73
2022/11/08 06:23:30;;;;;;;7.83;2.03;;;;;;;10.48;97.29;100268.84;20590983;28;20112;-74
2022/11/08 06:33:51;;;;;;;8.52;2.13;;;;;;;10.43;97.25;100270.94;20609995;28;20348;-74
2022/11/08 06:44:13;;;;;;;10.27;2.00;;;;;;;10.44;96.96;100263.00;20593952;28;20042;-73
2022/11/08 06:54:34;;;;;;;6.57;1.70;;;;;;;10.51;96.29;100252.94;20591667;28;20368;-73
2022/11/08 07:04:56;;;;;;;7.13;2.00;;;;;;;10.56;96.25;100243.84;20610700;28;20137;-74
2022/11/08 07:15:17;;;;;;;7.70;1.57;;;;;;;10.56;94.64;100230.81;20603979;28;20039;-74
2022/11/08 07:25:39;;;;;;;7.37;1.70;;;;;;;10.60;94.03;100233.09;20584206;28;20053;-75
2022/11/08 07:36:01;;;;;;;9.03;1.70;;;;;;;10.68;94.10;100233.34;20584663;28;20808;-74
2022/11/08 07:46:22;;;;;;;4.50;1.70;;;;;;;10.73;93.31;100218.22;20604192;28;20768;-75
2022/11/08 07:56:43;;;;;;;8.90;1.83;;;;;;;10.86;93.00;100213.72;20600755;28;20108;-73
2022/11/08 08:07:06;;;;;;;6.60;1.30;;;;;;;11.01;92.18;100202.16;20592412;28;20050;-74
2022/11/08 08:17:27;;;;;;;6.45;1.55;;;;;;;11.18;91.26;100204.28;20602101;28;20329;-73
2022/11/08 08:27:50;;;;;;;6.30;1.33;;;;;;;11.33;90.08;100191.84;20598623;28;20050;-74
2022/11/08 08:38:12;;;;;;;5.60;1.75;;;;;;;11.46;89.44;100167.28;20575266;28;20074;-73
2022/11/08 08:48:34;;;;;;;5.47;1.27;;;;;;;11.56;89.19;100173.47;20606390;28;20108;-75
2022/11/08 08:58:56;;;;;;;4.50;1.25;;;;;;;11.68;88.28;100165.50;20610572;28;20050;-73
2022/11/08 09:09:37;;;;;;;6.45;1.50;;;;;;;11.77;87.12;100145.66;20611562;28;20084;-74
2022/11/08 09:19:59;;;;;;;3.42;1.30;;;;;;;11.88;87.37;100153.47;20591475;28;20038;-73
2022/11/08 09:30:20;;;;;;;2.53;1.17;;;;;;;12.10;85.92;100132.47;20608641;28;20411;-73
2022/11/08 09:40:58;;;;;;;5.67;1.40;;;;;;;12.24;84.46;100108.63;20606478;28;20513;-73
2022/11/08 09:51:23;;;;;;;4.20;0.90;;;;;;;12.35;84.52;100109.41;20604812;28;20828;-73
2022/11/08 10:01:44;;;;;;;4.57;1.73;;;;;;;12.49;84.58;100103.88;20588222;28;20147;-74
2022/11/08 10:12:21;;;;;;;4.38;1.05;;;;;;;12.58;83.23;100087.44;20607819;28;20073;-74
2022/11/08 10:23:21;;;;;;;3.58;1.23;;;;;;;12.63;82.75;100073.00;20584061;28;20042;-73
2022/11/08 10:33:51;;;;;;;2.93;1.30;;;;;;;12.75;83.39;100069.34;20603192;28;20117;-74
2022/11/08 10:44:23;;;;;;;4.32;1.38;;;;;;;12.90;82.21;100062.81;20610832;28;20062;-74
2022/11/08 10:54:44;;;;;;;3.05;1.33;;;;;;;13.05;82.42;100053.66;20594099;28;20046;-75
2022/11/08 11:05:15;;;;;;;3.00;1.20;;;;;;;13.24;81.00;100047.63;20601201;28;20039;-73
2022/11/08 11:15:36;;;;;;;2.50;1.07;;;;;;;13.38;80.88;100032.38;20593732;28;20096;-74
2022/11/08 11:25:58;;;;;;;2.75;1.30;;;;;;;13.63;79.78;100037.06;20603823;28;20512;-74
2022/11/08 11:36:23;;;;;;;2.05;1.02;;;;;;;13.78;79.55;100014.75;20592430;28;20054;-74
2022/11/08 11:46:58;;;;;;;5.03;1.23;;;;;;;13.95;77.76;100021.91;20594147;28;20042;-75
2022/11/08 11:57:31;;;;;;;3.10;1.05;;;;;;;14.07;77.39;100024.22;20770648;23;20081;-67
2022/11/08 12:08:33;;;;;;;5.45;0.95;;;;;;;14.23;73.33;100018.44;20762839;28;20095;-67
2022/11/08 12:19:03;;;;;;;4.15;1.20;;;;;;;14.25;75.93;100003.41;20745467;28;20663;-67
2022/11/08 12:29:33;;;;;;;4.77;1.23;;;;;;;14.40;77.78;99986.25;20800788;28;20455;-67
2022/11/08 12:40:01;;;;;;;4.50;1.10;;;;;;;14.41;74.76;99991.34;20789061;28;20068;-67
2022/11/08 12:50:32;;;;;;;1.83;0.80;;;;;;;14.55;73.34;100012.66;20792386;28;20049;-67
2022/11/08 13:00:58;;;;;;;4.63;1.00;;;;;;;14.60;76.96;99997.31;20784600;28;20540;-67
2022/11/08 13:11:59;;;;;;;2.75;1.27;;;;;;;14.56;72.18;99976.78;20784705;28;20058;-67
2022/11/08 13:22:32;;;;;;;;;;;;;;;14.58;70.83;99975.66;20803123;28;20116;-66
2022/11/08 13:33:13;;;;;;;1.83;1.00;;;;;;;14.60;74.00;99965.03;20791495;28;19933;-67
2022/11/08 13:43:35;;;;;;;;;;;;;;;14.55;71.32;99944.47;20808137;28;20092;-67
2022/11/08 13:54:20;;;;;;;3.65;0.95;;;;;;;14.64;75.77;99922.63;20794322;28;19925;-66
2022/11/08 14:04:42;;;;;;;4.38;1.00;;;;;;;14.72;75.54;99935.81;20804238;28;20045;-67
2022/11/08 14:15:26;;;;;;;5.55;1.27;;;;;;;14.67;72.26;99938.06;20793421;28;20053;-67
2022/11/08 14:26:01;;;;;;;4.72;1.10;;;;;;;14.69;72.02;99915.16;20808627;28;20461;-64
2022/11/08 14:36:24;;;;;;;1.30;0.80;;;;;;;14.39;68.51;99927.72;20804519;28;20095;-64
2022/11/08 14:46:47;;;;;;;2.50;1.00;;;;;;;14.19;71.84;99930.56;20807163;28;20881;-63
2022/11/08 14:57:30;;;;;;;2.60;0.90;;;;;;;14.21;68.83;99939.09;20803089;28;20060;-64
2022/11/08 15:07:52;;;;;;;3.08;1.13;;;;;;;13.98;69.86;99932.50;20799866;28;20041;-63
2022/11/08 15:18:16;;;;;;;6.13;1.17;;;;;;;14.01;69.39;99934.84;20783597;28;20055;-64
2022/11/08 15:28:38;;;;;;;5.60;1.30;;;;;;;14.10;67.74;99926.16;20799840;28;20057;-63
2022/11/08 15:39:01;;;;;;;1.63;1.00;;;;;;;13.99;66.92;99918.44;20789100;28;20142;-63
2022/11/08 15:49:25;;;;;;;5.32;1.30;;;;;;;13.79;67.64;99909.81;20763354;28;20608;-64
2022/11/08 15:59:47;;;;;;;4.53;1.10;;;;;;;13.78;69.19;99910.78;20789385;28;20045;-67
2022/11/08 16:10:09;;;;;;;3.83;1.10;;;;;;;13.65;67.97;99914.69;20786189;28;20038;-66
2022/11/08 16:20:35;;;;;;;2.70;0.90;;;;;;;13.53;68.57;99915.81;20785886;28;20064;-65
2022/11/08 16:30:57;;;;;;;6.15;1.25;;;;;;;13.57;68.66;99919.75;20787699;28;20045;-65
2022/11/08 16:41:20;;;;;;;2.65;1.08;;;;;;;13.63;68.27;99916.59;20787343;28;20652;-66
2022/11/08 16:51:42;;;;;;;2.35;1.33;;;;;;;13.44;69.38;99921.84;20782800;28;20053;-66
2022/11/08 17:02:17;;;;;;;3.38;1.30;;;;;;;13.46;69.92;99925.97;20784275;28;20056;-68
2022/11/08 17:12:39;;;;;;;4.30;1.30;;;;;;;13.41;70.23;99932.59;20793988;28;20046;-66
2022/11/08 17:23:01;;;;;;;2.60;1.30;;;;;;;13.38;70.39;99937.28;20798749;28;20767;-65
2022/11/08 17:33:23;;;;;;;3.72;1.58;;;;;;;13.36;70.86;99942.69;20798106;28;20052;-66
2022/11/08 17:43:45;;;;;;;2.30;1.48;;;;;;;13.27;71.58;99940.88;20795167;28;20045;-65
2022/11/08 17:54:07;;;;;;;4.80;1.20;;;;;;;13.16;72.88;99943.63;20796216;22;20060;-64
2022/11/08 18:04:29;;;;;;;1.80;1.15;;;;;;;13.31;72.84;99936.19;20757001;28;20045;-64
2022/11/08 18:14:51;;;;;;;2.50;1.40;;;;;;;13.26;72.30;99939.22;20757957;28;20611;-64
2022/11/08 18:25:14;;;;;;;4.53;1.65;;;;;;;13.11;73.73;99951.03;20744226;28;20665;-63
2022/11/08 18:35:36;;;;;;;4.13;1.60;;;;;;;12.98;74.61;99945.25;20735795;28;20053;-64
2022/11/08 18:46:07;;;;;;;4.45;1.38;;;;;;;13.09;73.96;99944.31;20743652;28;20057;-63
2022/11/08 18:56:29;;;;;;;2.78;1.50;;;;;;;13.01;75.31;99939.75;20731136;28;20038;-64
2022/11/08 19:06:50;;;;;;;4.88;1.50;;;;;;;12.96;75.33;99941.94;20755442;28;20096;-63
2022/11/08 19:17:15;;;;;;;4.90;1.40;;;;;;;12.98;75.28;99942.63;20758546;28;20053;-65
2022/11/08 19:27:37;;;;;;;2.42;1.60;;;;;;;12.89;76.63;99935.59;20766909;28;20037;-64
2022/11/08 19:37:59;;;;;;;4.22;1.80;;;;;;;12.87;76.54;99945.34;20755105;28;20484;-64
2022/11/08 19:48:20;;;;;;;6.55;2.10;;;;;;;12.80;77.46;99952.09;20754833;28;20034;-64
2022/11/08 19:58:44;;;;;;;5.57;1.58;;;;;;;12.67;78.33;99967.16;20752207;28;20683;-64
2022/11/08 20:09:08;;;;;;;5.28;2.08;;;;;;;12.66;78.55;99975.97;20810411;28;20045;-64
2022/11/08 20:19:29;;;;;;;6.88;1.83;;;;;;;12.71;78.74;99976.41;20761607;28;20120;-64
2022/11/08 20:29:51;;;;;;;7.78;1.40;;;;;;;12.63;78.44;99965.78;20750843;28;20523;-64
2022/11/08 20:40:13;;;;;;;3.88;1.70;;;;;;;12.53;79.96;99964.91;20773414;28;20088;-63
2022/11/08 20:50:37;;;;;;;3.38;1.65;;;;;;;12.56;80.36;99969.88;20771301;28;20156;-63
2022/11/08 21:01:01;;;;;;;2.42;1.52;;;;;;;12.46;81.15;99972.59;20854691;28;20061;-65
2022/11/08 21:11:23;;;;;;;5.18;1.52;;;;;;;12.50;81.62;99961.75;20801889;28;20081;-66
2022/11/08 21:21:47;;;;;;;4.43;1.70;;;;;;;12.48;81.89;99961.03;20774503;28;20060;-64
2022/11/08 21:32:09;;;;;;;3.95;1.42;;;;;;;12.38;82.56;99965.41;20770231;28;20042;-63
2022/11/08 21:42:31;;;;;;;3.08;1.50;;;;;;;12.37;83.03;99983.84;20775217;28;20045;-63
2022/11/08 21:53:00;;;;;;;3.30;1.60;;;;;;;12.39;83.28;99981.91;20866573;28;20038;-64
2022/11/08 22:03:22;;;;;;;2.30;1.60;;;;;;;12.34;83.97;99978.88;20785771;28;20042;-64
2022/11/08 22:13:44;;;;;;;5.95;1.65;;;;;;;12.22;84.41;99990.38;20745100;28;20050;-64
2022/11/08 22:24:19;;;;;;;3.17;1.55;;;;;;;12.30;84.51;99982.69;20748856;28;20692;-64
2022/11/08 22:34:41;;;;;;;5.40;1.40;;;;;;;12.31;84.48;99979.13;20774924;28;20433;-64
2022/11/08 22:45:03;;;;;;;3.28;1.70;;;;;;;12.27;85.02;99975.13;20763664;28;20053;-65
2022/11/08 22:55:25;;;;;;;2.30;1.40;;;;;;;12.16;85.67;99985.66;20751326;28;20362;-65
2022/11/08 23:05:48;;;;;;;6.28;2.08;;;;;;;12.08;86.55;99978.47;20757307;28;20046;-64
2022/11/08 23:37:31;;;;;;;4.70;1.60;;;;;;;11.94;88.25;99972.72;20748250;28;20061;-64
2022/11/08 23:47:52;;;;;;;4.45;1.50;;;;;;;12.31;87.01;99968.69;20762175;28;20498;-64
2022/11/08 23:58:14;;;;;;;3.42;1.48;;;;;;;12.22;87.25;99969.47;20779526;22;20408;-65
